createdAt,value
2022-12-18T00:00:28.200Z,99.79
2022-12-18T00:01:28.122Z,99.99
2022-12-18T00:02:28.114Z,99.99
2022-12-18T00:03:28.236Z,99.99
2022-12-18T00:04:28.118Z,99.99
2022-12-18T00:05:28.061Z,99.99
2022-12-18T00:06:28.022Z,99.99
2022-12-18T00:07:28.040Z,99.99
2022-12-18T00:08:27.968Z,99.99
2022-12-18T00:09:31.598Z,99.99
2022-12-18T00:10:28.971Z,99.99
2022-12-18T00:11:27.989Z,99.99
2022-12-18T00:12:30.043Z,99.99
2022-12-18T00:13:27.950Z,99.99
2022-12-18T00:14:27.921Z,99.99
2022-12-18T00:15:27.931Z,99.99
2022-12-18T00:16:28.144Z,99.99
2022-12-18T00:17:27.919Z,99.99
2022-12-18T00:18:27.885Z,99.99
2022-12-18T00:19:27.893Z,99.99
2022-12-18T00:20:27.830Z,99.99
2022-12-18T00:21:27.836Z,99.99
2022-12-18T00:22:27.822Z,99.99
2022-12-18T00:23:27.815Z,99.99
2022-12-18T00:24:27.833Z,99.99
2022-12-18T00:25:28.540Z,99.99
2022-12-18T00:26:27.750Z,99.99
2022-12-18T00:27:27.765Z,99.92
2022-12-18T00:28:27.753Z,99.71
2022-12-18T00:29:27.775Z,99.60
2022-12-18T00:30:27.727Z,99.49
2022-12-18T00:31:27.781Z,99.38
2022-12-18T00:32:27.679Z,99.43
2022-12-18T00:33:27.688Z,99.54
2022-12-18T00:34:27.681Z,99.60
2022-12-18T00:35:27.691Z,99.71
2022-12-18T00:36:27.685Z,99.81
2022-12-18T00:37:27.673Z,99.99
2022-12-18T00:38:27.620Z,99.99
2022-12-18T00:39:27.665Z,99.99
2022-12-18T00:40:27.578Z,99.99
2022-12-18T00:41:27.604Z,99.99
2022-12-18T00:42:27.696Z,99.99
2022-12-18T00:43:27.577Z,99.99
2022-12-18T00:44:27.567Z,99.99
2022-12-18T00:45:27.584Z,99.99
2022-12-18T00:46:27.565Z,99.99
2022-12-18T00:47:27.494Z,99.99
2022-12-18T00:48:27.653Z,99.99
2022-12-18T00:49:27.495Z,99.99
2022-12-18T00:50:27.488Z,99.99
2022-12-18T00:51:27.483Z,99.99
2022-12-18T00:52:27.467Z,99.99
2022-12-18T00:53:27.419Z,99.99
2022-12-18T00:54:27.486Z,99.99
2022-12-18T00:55:27.397Z,99.99
2022-12-18T00:56:27.437Z,99.99
2022-12-18T00:57:27.397Z,99.99
2022-12-18T00:58:27.389Z,99.99
2022-12-18T00:59:27.340Z,99.99
2022-12-18T01:00:27.428Z,99.99
2022-12-18T01:01:27.390Z,99.99
2022-12-18T01:02:27.472Z,99.99
2022-12-18T01:03:27.327Z,99.99
2022-12-18T01:04:27.311Z,99.99
2022-12-18T01:05:27.272Z,99.99
2022-12-18T01:06:27.435Z,99.99
2022-12-18T01:07:27.252Z,99.99
2022-12-18T01:08:27.291Z,99.99
2022-12-18T01:09:27.248Z,99.99
2022-12-18T01:10:27.243Z,99.99
2022-12-18T01:11:27.228Z,99.99
2022-12-18T01:12:27.252Z,99.98
2022-12-18T01:13:28.130Z,99.87
2022-12-18T01:14:27.218Z,99.92
2022-12-18T01:15:27.177Z,99.92
2022-12-18T01:16:27.195Z,99.92
2022-12-18T01:17:27.122Z,99.99
2022-12-18T01:18:27.198Z,99.99
2022-12-18T01:19:27.103Z,99.99
2022-12-18T01:20:27.147Z,99.99
2022-12-18T01:21:27.110Z,99.99
2022-12-18T01:22:27.093Z,99.99
2022-12-18T01:23:27.090Z,99.99
2022-12-18T01:24:27.184Z,99.99
2022-12-18T01:25:27.023Z,99.99
2022-12-18T01:26:27.072Z,99.99
2022-12-18T01:27:27.002Z,99.99
2022-12-18T01:28:27.041Z,99.99
2022-12-18T01:29:27.008Z,99.99
2022-12-18T01:30:27.015Z,99.92
2022-12-18T01:31:27.046Z,99.71
2022-12-18T01:32:26.999Z,99.54
2022-12-18T01:33:26.960Z,99.43
2022-12-18T01:34:26.944Z,99.54
2022-12-18T01:35:26.933Z,99.54
2022-12-18T01:36:26.946Z,99.54
2022-12-18T01:37:26.885Z,99.54
2022-12-18T01:38:26.921Z,99.43
2022-12-18T01:39:26.855Z,99.32
2022-12-18T01:40:26.900Z,99.21
2022-12-18T01:41:26.860Z,99.32
2022-12-18T01:42:26.887Z,99.64
2022-12-18T01:43:26.835Z,99.75
2022-12-18T01:44:26.825Z,99.96
2022-12-18T01:45:26.825Z,99.99
2022-12-18T01:46:26.822Z,99.99
2022-12-18T01:47:26.757Z,99.99
2022-12-18T01:48:26.840Z,99.99
2022-12-18T01:49:26.762Z,99.99
2022-12-18T01:50:26.746Z,99.99
2022-12-18T01:51:26.732Z,99.99
2022-12-18T01:52:26.726Z,99.99
2022-12-18T01:53:26.677Z,99.99
2022-12-18T01:54:26.761Z,99.99
2022-12-18T01:55:26.658Z,99.99
2022-12-18T01:56:26.705Z,99.99
2022-12-18T01:57:26.662Z,99.99
2022-12-18T01:58:26.647Z,99.99
2022-12-18T01:59:26.633Z,99.92
2022-12-18T02:00:26.649Z,99.99
2022-12-18T02:01:26.731Z,99.99
2022-12-18T02:02:26.794Z,99.99
2022-12-18T02:03:26.620Z,99.99
2022-12-18T02:04:26.579Z,99.99
2022-12-18T02:05:26.539Z,99.99
2022-12-18T02:06:26.604Z,99.99
2022-12-18T02:07:26.508Z,99.99
2022-12-18T02:08:26.553Z,99.92
2022-12-18T02:09:26.516Z,99.81
2022-12-18T02:10:26.498Z,99.71
2022-12-18T02:11:26.485Z,99.54
2022-12-18T02:12:26.589Z,99.43
2022-12-18T02:13:26.438Z,99.32
2022-12-18T02:14:26.478Z,99.21
2022-12-18T02:15:26.409Z,99.21
2022-12-18T02:16:26.475Z,99.26
2022-12-18T02:17:26.415Z,99.21
2022-12-18T02:18:26.444Z,99.21
2022-12-18T02:19:26.360Z,99.32
2022-12-18T02:20:26.406Z,99.43
2022-12-18T02:21:26.366Z,99.43
2022-12-18T02:22:26.360Z,99.43
2022-12-18T02:23:26.341Z,99.43
2022-12-18T02:24:26.445Z,99.54
2022-12-18T02:25:26.290Z,99.43
2022-12-18T02:26:26.328Z,99.32
2022-12-18T02:27:26.261Z,99.15
2022-12-18T02:28:26.313Z,99.15
2022-12-18T02:29:26.268Z,99.04
2022-12-18T02:30:26.394Z,99.04
2022-12-18T02:31:26.245Z,99.15
2022-12-18T02:32:26.231Z,99.48
2022-12-18T02:33:26.191Z,99.75
2022-12-18T02:34:26.237Z,99.99
2022-12-18T02:35:26.202Z,99.99
2022-12-18T02:36:26.222Z,99.99
2022-12-18T02:37:26.142Z,99.99
2022-12-18T02:38:26.189Z,99.99
2022-12-18T02:39:26.112Z,99.99
2022-12-18T02:40:26.159Z,99.96
2022-12-18T02:41:26.119Z,99.75
2022-12-18T02:42:26.222Z,99.64
2022-12-18T02:43:26.098Z,99.54
2022-12-18T02:44:26.083Z,99.54
2022-12-18T02:45:26.042Z,99.48
2022-12-18T02:46:26.087Z,99.48
2022-12-18T02:47:26.014Z,99.54
2022-12-18T02:48:26.088Z,99.85
2022-12-18T02:49:26.021Z,99.99
2022-12-18T02:50:26.012Z,99.99
2022-12-18T02:51:25.998Z,99.99
2022-12-18T02:52:25.985Z,99.99
2022-12-18T02:53:25.953Z,99.99
2022-12-18T02:54:26.099Z,99.99
2022-12-18T02:55:25.924Z,99.99
2022-12-18T02:56:25.960Z,99.99
2022-12-18T02:57:25.920Z,99.99
2022-12-18T02:58:25.911Z,99.99
2022-12-18T02:59:25.900Z,99.99
2022-12-18T03:00:25.913Z,99.99
2022-12-18T03:01:25.921Z,99.99
2022-12-18T03:02:26.017Z,99.99
2022-12-18T03:03:25.893Z,99.99
2022-12-18T03:04:25.862Z,99.99
2022-12-18T03:05:25.821Z,99.99
2022-12-18T03:06:25.917Z,99.99
2022-12-18T03:07:25.779Z,99.99
2022-12-18T03:08:25.818Z,99.99
2022-12-18T03:09:25.772Z,99.99
2022-12-18T03:10:25.766Z,99.99
2022-12-18T03:11:25.751Z,99.99
2022-12-18T03:12:25.775Z,99.99
2022-12-18T03:13:25.695Z,99.99
2022-12-18T03:14:25.743Z,99.99
2022-12-18T03:15:25.676Z,99.99
2022-12-18T03:16:25.757Z,99.99
2022-12-18T03:17:25.674Z,99.99
2022-12-18T03:18:25.778Z,99.99
2022-12-18T03:19:25.654Z,99.99
2022-12-18T03:20:25.636Z,99.30
2022-12-18T03:21:25.609Z,98.53
2022-12-18T03:22:25.644Z,98.03
2022-12-18T03:23:26.429Z,97.86
2022-12-18T03:24:25.628Z,97.97
2022-12-18T03:25:25.557Z,97.97
2022-12-18T03:26:25.602Z,98.29
2022-12-18T03:27:25.528Z,98.50
2022-12-18T03:28:25.578Z,98.72
2022-12-18T03:29:25.536Z,98.83
2022-12-18T03:30:25.548Z,98.83
2022-12-18T03:31:25.604Z,98.83
2022-12-18T03:32:25.498Z,98.61
2022-12-18T03:33:25.460Z,98.55
2022-12-18T03:34:25.495Z,98.44
2022-12-18T03:35:25.428Z,98.23
2022-12-18T03:36:25.586Z,98.12
2022-12-18T03:37:25.434Z,98.12
2022-12-18T03:38:25.419Z,98.12
2022-12-18T03:39:25.382Z,98.12
2022-12-18T03:40:25.425Z,98.12
2022-12-18T03:41:25.388Z,98.12
2022-12-18T03:42:25.403Z,98.23
2022-12-18T03:43:25.366Z,98.16
2022-12-18T03:44:25.349Z,98.16
2022-12-18T03:45:25.311Z,98.16
2022-12-18T03:46:25.389Z,98.27
2022-12-18T03:47:25.281Z,98.27
2022-12-18T03:48:25.365Z,98.16
2022-12-18T03:49:25.286Z,98.27
2022-12-18T03:50:25.272Z,98.27
2022-12-18T03:51:25.265Z,98.38
2022-12-18T03:52:25.251Z,98.49
2022-12-18T03:53:25.219Z,98.49
2022-12-18T03:54:25.368Z,98.60
2022-12-18T03:55:25.183Z,98.77
2022-12-18T03:56:25.228Z,98.98
2022-12-18T03:57:25.187Z,99.08
2022-12-18T03:58:25.180Z,99.19
2022-12-18T03:59:25.165Z,99.37
2022-12-18T04:00:25.192Z,99.58
2022-12-18T04:01:25.196Z,99.69
2022-12-18T04:02:25.326Z,99.69
2022-12-18T04:03:26.636Z,99.79
2022-12-18T04:04:25.129Z,99.79
2022-12-18T04:05:25.088Z,99.85
2022-12-18T04:06:25.183Z,99.99
2022-12-18T04:07:25.059Z,99.99
2022-12-18T04:08:25.052Z,99.99
2022-12-18T04:09:25.013Z,99.99
2022-12-18T04:10:25.058Z,99.99
2022-12-18T04:11:25.019Z,99.99
2022-12-18T04:12:25.046Z,99.99
2022-12-18T04:13:24.963Z,99.99
2022-12-18T04:14:25.009Z,99.99
2022-12-18T04:15:24.972Z,99.99
2022-12-18T04:16:24.980Z,99.99
2022-12-18T04:17:24.964Z,99.99
2022-12-18T04:18:24.964Z,99.99
2022-12-18T04:19:24.923Z,99.99
2022-12-18T04:20:24.904Z,99.99
2022-12-18T04:21:24.864Z,99.99
2022-12-18T04:22:24.909Z,99.99
2022-12-18T04:23:24.846Z,99.99
2022-12-18T04:24:24.911Z,99.92
2022-12-18T04:25:24.842Z,99.81
2022-12-18T04:26:24.835Z,99.92
2022-12-18T04:27:25.504Z,99.99
2022-12-18T04:28:24.831Z,99.99
2022-12-18T04:29:24.791Z,99.99
2022-12-18T04:30:24.895Z,99.99
2022-12-18T04:31:24.785Z,99.99
2022-12-18T04:32:24.755Z,99.99
2022-12-18T04:33:24.716Z,99.98
2022-12-18T04:34:24.761Z,99.92
2022-12-18T04:35:24.696Z,99.60
2022-12-18T04:36:24.772Z,99.38
2022-12-18T04:37:24.695Z,99.32
2022-12-18T04:38:24.688Z,99.11
2022-12-18T04:39:24.674Z,99.11
2022-12-18T04:40:24.656Z,99.00
2022-12-18T04:41:24.617Z,99.04
2022-12-18T04:42:24.696Z,99.04
2022-12-18T04:43:24.695Z,99.11
2022-12-18T04:44:24.609Z,99.99
2022-12-18T04:45:25.264Z,99.99
2022-12-18T04:46:24.664Z,99.99
2022-12-18T04:47:24.547Z,99.99
2022-12-18T04:48:24.695Z,99.99
2022-12-18T04:49:24.544Z,99.99
2022-12-18T04:50:24.539Z,99.99
2022-12-18T04:51:26.584Z,99.99
2022-12-18T04:52:24.511Z,99.99
2022-12-18T04:53:24.470Z,99.99
2022-12-18T04:54:24.555Z,99.99
2022-12-18T04:55:24.448Z,99.99
2022-12-18T04:56:25.167Z,99.99
2022-12-18T04:57:24.446Z,99.99
2022-12-18T04:58:24.439Z,99.99
2022-12-18T04:59:24.435Z,99.99
2022-12-18T05:00:24.446Z,99.99
2022-12-18T05:01:28.158Z,99.99
2022-12-18T05:02:25.516Z,99.99
2022-12-18T05:03:24.509Z,99.99
2022-12-18T05:04:24.339Z,99.99
2022-12-18T05:05:24.351Z,99.99
2022-12-18T05:06:24.376Z,99.99
2022-12-18T05:07:24.332Z,99.99
2022-12-18T05:08:24.315Z,99.99
2022-12-18T05:09:24.328Z,99.99
2022-12-18T05:10:24.260Z,99.99
2022-12-18T05:11:24.310Z,99.99
2022-12-18T05:12:24.261Z,99.99
2022-12-18T05:13:24.251Z,99.99
2022-12-18T05:14:24.239Z,99.99
2022-12-18T05:15:24.258Z,99.99
2022-12-18T05:16:24.238Z,99.99
2022-12-18T05:17:24.201Z,99.99
2022-12-18T05:18:24.226Z,99.99
2022-12-18T05:19:24.354Z,99.99
2022-12-18T05:20:24.324Z,99.87
2022-12-18T05:21:25.042Z,99.66
2022-12-18T05:22:24.339Z,99.49
2022-12-18T05:23:24.235Z,99.27
2022-12-18T05:24:24.262Z,99.17
2022-12-18T05:25:24.164Z,99.17
2022-12-18T05:26:24.105Z,99.27
2022-12-18T05:27:24.115Z,99.27
2022-12-18T05:28:24.085Z,99.38
2022-12-18T05:29:24.092Z,99.27
2022-12-18T05:30:24.134Z,99.32
2022-12-18T05:31:24.069Z,99.32
2022-12-18T05:32:24.041Z,99.21
2022-12-18T05:33:24.041Z,99.32
2022-12-18T05:34:24.009Z,99.32
2022-12-18T05:35:24.729Z,99.32
2022-12-18T05:36:23.996Z,99.32
2022-12-18T05:37:23.986Z,99.43
2022-12-18T05:38:23.953Z,99.54
2022-12-18T05:39:23.937Z,99.54
2022-12-18T05:40:23.942Z,99.54
2022-12-18T05:41:23.943Z,99.54
2022-12-18T05:42:23.997Z,99.64
2022-12-18T05:43:23.924Z,99.75
2022-12-18T05:44:23.857Z,99.71
2022-12-18T05:45:23.882Z,99.92
2022-12-18T05:46:23.940Z,99.99
2022-12-18T05:47:23.883Z,99.99
2022-12-18T05:48:23.916Z,99.99
2022-12-18T05:49:23.835Z,99.99
2022-12-18T05:50:23.805Z,99.99
2022-12-18T05:51:23.810Z,99.99
2022-12-18T05:52:23.795Z,99.99
2022-12-18T05:53:23.813Z,99.99
2022-12-18T05:54:23.854Z,99.99
2022-12-18T05:55:23.785Z,99.99
2022-12-18T05:56:23.709Z,99.99
2022-12-18T05:57:23.727Z,99.99
2022-12-18T05:58:23.715Z,99.99
2022-12-18T05:59:23.721Z,99.99
2022-12-18T06:00:23.735Z,99.99
2022-12-18T06:01:23.742Z,99.99
2022-12-18T06:02:23.738Z,99.99
2022-12-18T06:03:25.138Z,99.99
2022-12-18T06:04:23.630Z,99.99
2022-12-18T06:05:23.625Z,99.99
2022-12-18T06:06:23.725Z,99.99
2022-12-18T06:07:23.600Z,99.99
2022-12-18T06:08:23.588Z,99.99
2022-12-18T06:09:23.613Z,99.99
2022-12-18T06:10:23.530Z,99.99
2022-12-18T06:11:23.576Z,99.99
2022-12-18T06:12:23.540Z,99.99
2022-12-18T06:13:23.522Z,99.99
2022-12-18T06:14:23.526Z,99.99
2022-12-18T06:15:23.512Z,99.99
2022-12-18T06:16:23.527Z,99.99
2022-12-18T06:17:23.508Z,99.99
2022-12-18T06:18:23.462Z,99.99
2022-12-18T06:19:23.452Z,99.99
2022-12-18T06:20:23.437Z,99.99
2022-12-18T06:21:23.468Z,99.99
2022-12-18T06:22:23.382Z,99.99
2022-12-18T06:23:23.460Z,99.99
2022-12-18T06:24:23.493Z,99.99
2022-12-18T06:25:23.401Z,99.99
2022-12-18T06:26:27.755Z,99.99
2022-12-18T06:27:24.352Z,99.99
2022-12-18T06:28:23.349Z,99.99
2022-12-18T06:29:23.358Z,99.99
2022-12-18T06:30:23.632Z,99.98
2022-12-18T06:31:23.452Z,99.87
2022-12-18T06:32:23.272Z,99.77
2022-12-18T06:33:23.303Z,99.71
2022-12-18T06:34:23.260Z,99.60
2022-12-18T06:35:23.310Z,99.60
2022-12-18T06:36:23.290Z,99.60
2022-12-18T06:37:23.224Z,99.60
2022-12-18T06:38:23.210Z,99.60
2022-12-18T06:39:23.555Z,99.49
2022-12-18T06:40:23.210Z,99.49
2022-12-18T06:41:23.212Z,99.49
2022-12-18T06:42:23.185Z,99.49
2022-12-18T06:43:23.184Z,99.49
2022-12-18T06:44:23.115Z,99.38
2022-12-18T06:45:23.134Z,99.38
2022-12-18T06:46:23.130Z,99.27
2022-12-18T06:47:23.126Z,99.27
2022-12-18T06:48:23.131Z,99.27
2022-12-18T06:49:27.338Z,99.27
2022-12-18T06:50:24.055Z,99.38
2022-12-18T06:51:23.054Z,99.38
2022-12-18T06:52:23.045Z,99.38
2022-12-18T06:53:23.071Z,99.38
2022-12-18T06:54:23.295Z,99.38
2022-12-18T06:55:23.032Z,99.49
2022-12-18T06:56:22.988Z,99.60
2022-12-18T06:57:22.986Z,99.60
2022-12-18T06:58:22.972Z,99.60
2022-12-18T06:59:22.956Z,99.60
2022-12-18T07:00:23.052Z,99.60
2022-12-18T07:01:23.077Z,99.60
2022-12-18T07:02:23.020Z,99.49
2022-12-18T07:03:22.934Z,99.49
2022-12-18T07:04:22.868Z,99.49
2022-12-18T07:05:22.883Z,99.49
2022-12-18T07:06:22.984Z,99.38
2022-12-18T07:07:22.857Z,99.49
2022-12-18T07:08:22.844Z,99.49
2022-12-18T07:09:22.863Z,99.60
2022-12-18T07:10:22.787Z,99.60
2022-12-18T07:11:22.842Z,99.60
2022-12-18T07:12:22.788Z,99.49
2022-12-18T07:13:22.777Z,99.54
2022-12-18T07:14:22.766Z,99.43
2022-12-18T07:15:22.758Z,99.32
2022-12-18T07:16:25.643Z,99.21
2022-12-18T07:17:22.755Z,99.11
2022-12-18T07:18:22.727Z,99.00
2022-12-18T07:19:22.885Z,98.94
2022-12-18T07:20:23.539Z,98.72
2022-12-18T07:21:22.680Z,98.50
2022-12-18T07:22:22.668Z,98.55
2022-12-18T07:23:22.684Z,98.55
2022-12-18T07:24:22.651Z,98.33
2022-12-18T07:25:22.637Z,98.33
2022-12-18T07:26:22.618Z,98.23
2022-12-18T07:27:22.609Z,98.33
2022-12-18T07:28:22.595Z,98.33
2022-12-18T07:29:22.606Z,98.44
2022-12-18T07:30:22.561Z,98.55
2022-12-18T07:31:22.656Z,98.50
2022-12-18T07:32:22.527Z,98.61
2022-12-18T07:33:22.539Z,98.61
2022-12-18T07:34:22.525Z,98.72
2022-12-18T07:35:25.160Z,98.72
2022-12-18T07:36:22.616Z,98.72
2022-12-18T07:37:22.519Z,98.72
2022-12-18T07:38:22.451Z,98.83
2022-12-18T07:39:22.463Z,98.61
2022-12-18T07:40:22.449Z,98.44
2022-12-18T07:41:22.466Z,98.44
2022-12-18T07:42:22.433Z,98.33
2022-12-18T07:43:22.439Z,98.33
2022-12-18T07:44:22.376Z,98.23
2022-12-18T07:45:22.396Z,98.33
2022-12-18T07:46:22.446Z,98.33
2022-12-18T07:47:22.362Z,98.44
2022-12-18T07:48:22.371Z,98.55
2022-12-18T07:49:22.368Z,98.50
2022-12-18T07:50:22.293Z,98.55
2022-12-18T07:51:22.340Z,98.61
2022-12-18T07:52:25.994Z,98.61
2022-12-18T07:53:22.295Z,98.61
2022-12-18T07:54:22.389Z,98.61
2022-12-18T07:55:22.289Z,98.57
2022-12-18T07:56:30.935Z,98.68
2022-12-18T07:57:48.929Z,98.74
2022-12-18T07:58:23.229Z,98.74
2022-12-18T07:59:22.216Z,98.59
2022-12-18T08:00:22.241Z,98.59
2022-12-18T08:01:22.321Z,98.65
2022-12-18T08:02:22.258Z,98.82
2022-12-18T08:03:22.230Z,98.52
2022-12-18T08:04:22.125Z,98.10
2022-12-18T08:05:22.149Z,97.77
2022-12-18T08:06:23.400Z,97.45
2022-12-18T08:07:22.122Z,97.30
2022-12-18T08:08:22.110Z,97.20
2022-12-18T08:09:22.120Z,97.05
2022-12-18T08:10:22.055Z,96.94
2022-12-18T08:11:22.100Z,96.58
2022-12-18T08:12:22.136Z,96.25
2022-12-18T08:13:22.046Z,95.89
2022-12-18T08:14:22.031Z,95.57
2022-12-18T08:15:22.016Z,95.32
2022-12-18T08:16:22.128Z,95.17
2022-12-18T08:17:22.026Z,94.87
2022-12-18T08:18:22.066Z,94.04
2022-12-18T08:19:21.993Z,93.25
2022-12-18T08:20:21.934Z,92.89
2022-12-18T08:21:22.102Z,92.68
2022-12-18T08:22:21.933Z,91.89
2022-12-18T08:23:21.917Z,90.98
2022-12-18T08:24:22.014Z,90.42
2022-12-18T08:25:21.924Z,90.57
2022-12-18T08:26:22.567Z,90.93
2022-12-18T08:27:29.442Z,91.39
2022-12-18T08:28:22.862Z,92.40
2022-12-18T08:29:21.874Z,93.57
2022-12-18T08:30:21.918Z,94.53
2022-12-18T08:31:21.896Z,95.34
2022-12-18T08:32:21.803Z,95.87
2022-12-18T08:33:22.756Z,96.19
2022-12-18T08:34:21.783Z,96.47
2022-12-18T08:35:21.771Z,96.68
2022-12-18T08:36:21.874Z,96.68
2022-12-18T08:37:21.785Z,96.89
2022-12-18T08:38:21.709Z,97.27
2022-12-18T08:39:21.745Z,97.70
2022-12-18T08:40:21.680Z,98.02
2022-12-18T08:41:21.700Z,98.40
2022-12-18T08:42:21.804Z,98.99
2022-12-18T08:43:21.703Z,99.65
2022-12-18T08:44:21.636Z,99.99
2022-12-18T08:45:21.650Z,99.99
2022-12-18T08:46:21.698Z,99.27
2022-12-18T08:47:21.628Z,98.32
2022-12-18T08:48:22.386Z,97.58
2022-12-18T08:49:21.628Z,97.52
2022-12-18T08:50:21.560Z,97.52
2022-12-18T08:51:21.600Z,97.73
2022-12-18T08:52:21.538Z,97.94
2022-12-18T08:53:21.550Z,98.36
2022-12-18T08:54:21.567Z,98.79
2022-12-18T08:55:21.520Z,99.32
2022-12-18T08:56:21.508Z,99.64
2022-12-18T08:57:21.527Z,99.99
2022-12-18T08:58:21.460Z,99.99
2022-12-18T08:59:21.472Z,99.99
2022-12-18T09:00:21.577Z,99.99
2022-12-18T09:01:21.525Z,99.99
2022-12-18T09:02:21.663Z,99.99
2022-12-18T09:03:21.474Z,99.99
2022-12-18T09:04:21.382Z,99.99
2022-12-18T09:05:21.401Z,99.99
2022-12-18T09:06:21.430Z,99.99
2022-12-18T09:07:21.372Z,99.98
2022-12-18T09:08:21.359Z,99.55
2022-12-18T09:09:21.377Z,99.13
2022-12-18T09:10:21.302Z,98.92
2022-12-18T09:11:21.349Z,98.96
2022-12-18T09:12:21.318Z,99.07
2022-12-18T09:13:21.304Z,99.18
2022-12-18T09:14:21.280Z,99.34
2022-12-18T09:15:21.269Z,99.34
2022-12-18T09:16:21.299Z,99.34
2022-12-18T09:17:21.383Z,99.24
2022-12-18T09:18:21.290Z,99.34
2022-12-18T09:19:21.223Z,99.38
2022-12-18T09:20:21.261Z,99.49
2022-12-18T09:21:21.191Z,99.49
2022-12-18T09:22:22.152Z,99.49
2022-12-18T09:23:21.178Z,99.55
2022-12-18T09:24:21.184Z,99.66
2022-12-18T09:25:21.114Z,99.55
2022-12-18T09:26:21.161Z,99.55
2022-12-18T09:27:21.085Z,99.51
2022-12-18T09:28:21.132Z,99.30
2022-12-18T09:29:21.112Z,99.08
2022-12-18T09:30:21.108Z,99.02
2022-12-18T09:31:21.062Z,99.13
2022-12-18T09:32:22.657Z,99.24
2022-12-18T09:33:21.064Z,99.24
2022-12-18T09:34:21.026Z,99.24
2022-12-18T09:35:21.012Z,99.24
2022-12-18T09:36:21.051Z,99.34
2022-12-18T09:37:20.966Z,99.40
2022-12-18T09:38:21.013Z,99.40
2022-12-18T09:39:22.901Z,99.30
2022-12-18T09:40:20.984Z,99.30
2022-12-18T09:41:20.944Z,99.19
2022-12-18T09:42:21.046Z,99.19
2022-12-18T09:43:20.935Z,99.30
2022-12-18T09:44:20.936Z,99.40
2022-12-18T09:45:20.858Z,99.35
2022-12-18T09:46:20.936Z,99.35
2022-12-18T09:47:20.866Z,99.46
2022-12-18T09:48:20.887Z,99.57
2022-12-18T09:49:20.809Z,99.67
2022-12-18T09:50:20.854Z,99.67
2022-12-18T09:51:20.787Z,99.67
2022-12-18T09:52:20.826Z,99.67
2022-12-18T09:53:20.787Z,99.73
2022-12-18T09:54:20.879Z,99.73
2022-12-18T09:55:20.764Z,99.41
2022-12-18T09:56:20.749Z,99.31
2022-12-18T09:57:20.709Z,99.21
2022-12-18T09:58:20.754Z,99.10
2022-12-18T09:59:20.679Z,99.10
2022-12-18T10:00:20.763Z,99.21
2022-12-18T10:01:20.761Z,99.21
2022-12-18T10:02:20.752Z,99.31
2022-12-18T10:03:21.340Z,99.41
2022-12-18T10:04:20.764Z,99.52
2022-12-18T10:05:20.627Z,99.63
2022-12-18T10:06:20.650Z,99.58
2022-12-18T10:07:20.606Z,99.69
2022-12-18T10:08:20.602Z,99.79
2022-12-18T10:09:20.581Z,99.90
2022-12-18T10:10:20.665Z,99.99
2022-12-18T10:11:20.552Z,99.99
2022-12-18T10:12:20.688Z,99.99
2022-12-18T10:13:20.529Z,99.99
2022-12-18T10:14:24.613Z,99.99
2022-12-18T10:15:20.509Z,99.99
2022-12-18T10:16:20.581Z,99.99
2022-12-18T10:17:20.454Z,99.99
2022-12-18T10:18:22.183Z,99.99
2022-12-18T10:19:20.424Z,99.99
2022-12-18T10:20:20.561Z,99.99
2022-12-18T10:21:20.430Z,99.99
2022-12-18T10:22:20.414Z,99.99
2022-12-18T10:23:20.400Z,99.99
2022-12-18T10:24:20.444Z,99.99
2022-12-18T10:25:20.353Z,99.99
2022-12-18T10:26:20.391Z,99.99
2022-12-18T10:27:20.325Z,99.99
2022-12-18T10:28:20.370Z,99.99
2022-12-18T10:29:20.321Z,99.99
2022-12-18T10:30:20.470Z,99.99
2022-12-18T10:31:20.326Z,99.99
2022-12-18T10:32:20.304Z,99.99
2022-12-18T10:33:20.254Z,99.99
2022-12-18T10:34:20.281Z,99.99
2022-12-18T10:35:20.250Z,99.99
2022-12-18T10:36:20.284Z,99.99
2022-12-18T10:37:20.216Z,99.99
2022-12-18T10:38:20.234Z,99.99
2022-12-18T10:39:20.165Z,99.99
2022-12-18T10:40:22.767Z,99.99
2022-12-18T10:41:21.677Z,99.99
2022-12-18T10:42:20.186Z,99.99
2022-12-18T10:43:20.146Z,99.99
2022-12-18T10:44:20.130Z,99.99
2022-12-18T10:45:20.086Z,99.99
2022-12-18T10:46:20.188Z,99.99
2022-12-18T10:47:20.067Z,99.99
2022-12-18T10:48:20.143Z,99.99
2022-12-18T10:49:20.063Z,99.99
2022-12-18T10:50:20.068Z,99.99
2022-12-18T10:51:20.008Z,99.99
2022-12-18T10:52:20.052Z,99.99
2022-12-18T10:53:20.013Z,99.95
2022-12-18T10:54:20.027Z,99.63
2022-12-18T10:55:19.996Z,99.73
2022-12-18T10:56:19.967Z,99.73
2022-12-18T10:57:19.976Z,99.63
2022-12-18T10:58:24.971Z,99.52
2022-12-18T10:59:20.948Z,99.31
2022-12-18T11:00:19.945Z,99.31
2022-12-18T11:01:19.985Z,99.21
2022-12-18T11:02:19.981Z,99.10
2022-12-18T11:03:19.928Z,99.36
2022-12-18T11:04:19.871Z,99.36
2022-12-18T11:05:19.889Z,99.25
2022-12-18T11:06:19.868Z,99.15
2022-12-18T11:07:19.827Z,99.36
2022-12-18T11:08:19.820Z,99.46
2022-12-18T11:09:19.772Z,99.67
2022-12-18T11:10:19.819Z,99.78
2022-12-18T11:11:28.524Z,99.78
2022-12-18T11:12:19.809Z,99.88
2022-12-18T11:13:19.833Z,99.99
2022-12-18T11:14:19.748Z,99.99
2022-12-18T11:15:19.718Z,99.99
2022-12-18T11:16:19.892Z,99.99
2022-12-18T11:18:19.540Z,99.99
2022-12-18T11:19:19.561Z,99.99
2022-12-18T11:20:19.567Z,99.99
2022-12-18T11:21:19.531Z,99.99
2022-12-18T11:22:19.518Z,99.99
2022-12-18T11:23:19.638Z,99.99
2022-12-18T11:24:19.461Z,99.99
2022-12-18T11:25:35.891Z,99.99
2022-12-18T11:26:20.443Z,99.99
2022-12-18T11:27:23.527Z,99.99
2022-12-18T11:28:51.632Z,99.99
2022-12-18T11:29:19.634Z,99.99
2022-12-18T11:30:22.099Z,99.99
2022-12-18T11:31:20.411Z,99.84
2022-12-18T11:32:20.005Z,99.52
2022-12-18T11:33:19.537Z,99.31
2022-12-18T11:34:29.034Z,99.21
2022-12-18T11:35:20.391Z,99.00
2022-12-18T11:36:20.245Z,98.89
2022-12-18T11:37:20.175Z,98.68
2022-12-18T11:38:19.365Z,98.53
2022-12-18T11:39:19.664Z,98.43
2022-12-18T11:40:23.527Z,98.22
2022-12-18T11:41:19.592Z,98.16
2022-12-18T11:42:19.323Z,97.90
2022-12-18T11:43:23.738Z,97.69
2022-12-18T11:44:19.596Z,97.48
2022-12-18T11:45:20.076Z,97.38
2022-12-18T11:46:19.936Z,97.27
2022-12-18T11:47:19.226Z,97.27
2022-12-18T11:48:19.219Z,97.17
2022-12-18T11:49:20.006Z,97.17
2022-12-18T11:50:19.555Z,97.17
2022-12-18T11:51:19.201Z,97.17
2022-12-18T11:52:19.197Z,97.17
2022-12-18T11:53:19.092Z,96.95
2022-12-18T11:54:19.110Z,96.95
2022-12-18T11:55:19.097Z,96.91
2022-12-18T11:56:19.081Z,96.91
2022-12-18T11:57:19.070Z,96.81
2022-12-18T11:58:19.110Z,96.81
2022-12-18T11:59:19.023Z,96.91
2022-12-18T12:00:19.057Z,97.02
2022-12-18T12:01:19.018Z,96.91
2022-12-18T12:02:19.103Z,96.81
2022-12-18T12:03:19.042Z,96.91
2022-12-18T12:04:19.053Z,96.81
2022-12-18T12:05:18.960Z,96.70
2022-12-18T12:06:18.952Z,96.66
2022-12-18T12:07:18.938Z,96.66
2022-12-18T12:08:18.935Z,96.97
2022-12-18T12:09:18.910Z,97.18
2022-12-18T12:10:18.939Z,97.18
2022-12-18T12:11:18.886Z,97.08
2022-12-18T12:12:18.900Z,96.97
2022-12-18T12:13:18.835Z,96.66
2022-12-18T12:14:18.844Z,96.24
2022-12-18T12:15:18.842Z,95.29
2022-12-18T12:16:18.923Z,94.67
2022-12-18T12:17:18.810Z,94.31
2022-12-18T12:18:18.823Z,93.99
2022-12-18T12:19:18.756Z,94.20
2022-12-18T12:20:18.775Z,93.47
2022-12-18T12:21:18.750Z,92.63
2022-12-18T12:22:18.885Z,92.21
2022-12-18T12:23:20.015Z,92.32
2022-12-18T12:24:18.742Z,92.42
2022-12-18T12:25:18.675Z,92.10
2022-12-18T12:26:18.696Z,92.10
2022-12-18T12:27:18.684Z,92.42
2022-12-18T12:28:18.707Z,92.10
2022-12-18T12:29:21.313Z,91.89
2022-12-18T12:30:18.662Z,91.58
2022-12-18T12:31:18.646Z,91.33
2022-12-18T12:32:18.644Z,91.22
2022-12-18T12:33:18.577Z,91.12
2022-12-18T12:34:18.617Z,91.43
2022-12-18T12:35:18.573Z,91.22
2022-12-18T12:36:18.594Z,91.33
2022-12-18T12:37:18.519Z,90.91
2022-12-18T12:38:18.528Z,91.01
2022-12-18T12:39:18.523Z,91.01
2022-12-18T12:40:49.070Z,90.59
2022-12-18T12:41:19.494Z,91.01
2022-12-18T12:42:18.504Z,91.43
2022-12-18T12:43:18.446Z,91.01
2022-12-18T12:44:18.494Z,90.80
2022-12-18T12:45:18.468Z,90.38
2022-12-18T12:46:18.504Z,90.07
2022-12-18T12:47:18.425Z,90.28
2022-12-18T12:48:18.400Z,90.49
2022-12-18T12:49:18.397Z,90.80
2022-12-18T12:50:18.406Z,91.01
2022-12-18T12:51:18.353Z,90.38
2022-12-18T12:52:18.508Z,90.59
2022-12-18T12:53:18.311Z,90.59